SERO

Details ICAO SERO
Name CORONEL ARTILLERIA VICTOR LARREA
Region Equador
Timezone America/Guayaquil (UTC-5.0)
Plans Departing 4
Arriving 4
Stats Elevation 170 ft / 52 m (AMSL)
Location -3.435163° -79.977817°
Runways 1
Magnetic Variation 1.821° W
Sunrise 2017-12-18 11:08:23 UTC / 2017-12-18 06:08:23 Local
Sunset 2017-12-18 23:27:34 UTC / 2017-12-18 18:27:34 Local
Advertisement - Login to hide

Runways

ID Width Length Bearing (true) Bearing (mag) Surface Threshold Offset Overrun Length
09 59 ft / 18 m 3,246 ft / 990 m 91.02° 92.84° Asphalt 0 ft / 0 m 0 ft / 0 m
27 59 ft / 18 m 3,246 ft / 990 m 271.02° 272.84° Asphalt 0 ft / 0 m 0 ft / 0 m

Map

Weather


0- 5 10 15 20 25 30 35+ Temperature / ° C

Clouds and Precipitation
Forecast for 2017-12-19 00:00 UTC. Updated 2 hours ago

Ground ~20,000 ft ~40,000 ft Winds

METAR

SERO 182000Z 34011KT 9999 SCT040 SCT080 30/22 Q1007

TAF

Not found
Warning: Do not use this data for real-world aviation or navigation. No guarantee of current accuracy is given.